createdAt,value
2023-05-10T00:01:45.849Z,101679.46
2023-05-10T00:04:12.961Z,101677.83
2023-05-10T00:06:40.057Z,101681.35
2023-05-10T00:09:07.832Z,101677.56
2023-05-10T00:11:34.840Z,101678.27
2023-05-10T00:14:01.791Z,101673.11
2023-05-10T00:16:29.055Z,101671.10
2023-05-10T00:18:56.083Z,101670.67
2023-05-10T00:21:23.108Z,101668.30
2023-05-10T00:23:50.178Z,101668.52
2023-05-10T00:26:17.802Z,101673.66
2023-05-10T00:28:45.621Z,101665.73
2023-05-10T00:31:12.698Z,101667.80
2023-05-10T00:33:39.683Z,101667.77
2023-05-10T00:36:08.580Z,101666.86
2023-05-10T00:38:35.656Z,101667.33
2023-05-10T00:41:03.824Z,101669.11
2023-05-10T00:43:31.434Z,101666.28
2023-05-10T00:45:58.451Z,101663.98
2023-05-10T00:48:25.588Z,101668.36
2023-05-10T00:50:52.721Z,101666.71
2023-05-10T00:53:19.751Z,101666.85
2023-05-10T00:55:46.745Z,101667.52
2023-05-10T00:58:14.299Z,101668.41
2023-05-10T01:00:42.850Z,101664.69
2023-05-10T01:03:09.943Z,101663.26
2023-05-10T01:05:36.970Z,101665.17
2023-05-10T01:08:04.070Z,101665.00
2023-05-10T01:10:31.921Z,101658.90
2023-05-10T01:12:58.908Z,101660.73
2023-05-10T01:15:26.418Z,101660.45
2023-05-10T01:17:53.436Z,101662.59
2023-05-10T01:20:20.909Z,101665.08
2023-05-10T01:23:06.234Z,101659.74
2023-05-10T01:26:01.359Z,101664.72
2023-05-10T01:28:46.502Z,101656.44
2023-05-10T01:31:44.497Z,101653.19
2023-05-10T01:34:17.443Z,101652.98
2023-05-10T01:36:58.881Z,101656.19
2023-05-10T01:39:33.882Z,101654.33
2023-05-10T01:42:04.671Z,101652.77
2023-05-10T01:44:59.236Z,101649.75
2023-05-10T01:48:13.481Z,101649.70
2023-05-10T01:50:43.379Z,101646.59
2023-05-10T01:53:12.122Z,101650.48
2023-05-10T01:55:49.885Z,101643.49
2023-05-10T01:58:41.074Z,101645.06
2023-05-10T02:01:08.097Z,101645.77
2023-05-10T02:03:35.287Z,101648.58
2023-05-10T02:06:02.734Z,101650.41
2023-05-10T02:08:29.682Z,101646.68
2023-05-10T02:10:57.663Z,101648.09
2023-05-10T02:13:25.220Z,101649.60
2023-05-10T02:15:52.439Z,101645.14
2023-05-10T02:18:19.691Z,101647.86
2023-05-10T02:20:47.016Z,101647.27
2023-05-10T02:23:16.259Z,101647.48
2023-05-10T02:25:44.467Z,101652.45
2023-05-10T02:28:11.827Z,101653.03
2023-05-10T02:30:38.883Z,101651.58
2023-05-10T02:33:05.913Z,101649.88
2023-05-10T02:35:34.495Z,101654.61
2023-05-10T02:38:02.490Z,101651.52
2023-05-10T02:40:30.718Z,101653.23
2023-05-10T02:42:57.979Z,101656.05
2023-05-10T02:45:27.598Z,101656.19
2023-05-10T02:47:54.754Z,101656.34
2023-05-10T02:50:21.782Z,101654.84
2023-05-10T02:52:51.072Z,101656.80
2023-05-10T02:55:18.183Z,101656.15
2023-05-10T02:57:50.097Z,101654.08
2023-05-10T03:00:17.519Z,101652.39
2023-05-10T03:02:44.874Z,101657.96
2023-05-10T03:05:11.930Z,101654.52
2023-05-10T03:07:39.122Z,101653.44
2023-05-10T03:10:07.038Z,101652.20
2023-05-10T03:12:59.813Z,101653.27
2023-05-10T03:15:33.113Z,101652.35
2023-05-10T03:18:23.334Z,101655.26
2023-05-10T03:20:52.122Z,101653.91
2023-05-10T03:23:19.121Z,101655.78
2023-05-10T03:25:47.204Z,101658.05
2023-05-10T03:28:14.213Z,101658.22
2023-05-10T03:30:42.169Z,101662.02
2023-05-10T03:33:10.801Z,101663.21
2023-05-10T03:35:40.540Z,101661.51
2023-05-10T03:38:07.544Z,101663.53
2023-05-10T03:40:34.679Z,101663.90
2023-05-10T03:43:01.806Z,101667.95
2023-05-10T03:45:28.977Z,101660.51
2023-05-10T03:47:56.471Z,101661.41
2023-05-10T03:50:27.435Z,101661.54
2023-05-10T03:52:54.904Z,101663.92
2023-05-10T03:55:22.144Z,101668.37
2023-05-10T03:57:50.962Z,101673.64
2023-05-10T04:00:19.278Z,101672.63
2023-05-10T04:02:47.745Z,101674.42
2023-05-10T04:05:19.172Z,101676.88
2023-05-10T04:07:46.259Z,101674.57
2023-05-10T04:10:13.439Z,101676.58
2023-05-10T04:12:40.417Z,101682.05
2023-05-10T04:15:08.056Z,101687.98
2023-05-10T04:17:35.187Z,101688.47
2023-05-10T04:20:02.260Z,101691.31
2023-05-10T04:22:30.222Z,101688.77
2023-05-10T04:24:57.868Z,101687.16
2023-05-10T04:27:24.917Z,101685.55
2023-05-10T04:29:52.189Z,101685.23
2023-05-10T04:32:20.132Z,101687.36
2023-05-10T04:34:47.637Z,101684.30
2023-05-10T04:37:14.737Z,101683.92
2023-05-10T04:39:42.497Z,101686.38
2023-05-10T04:42:09.679Z,101686.07
2023-05-10T04:44:37.342Z,101686.65
2023-05-10T04:47:04.530Z,101688.80
2023-05-10T04:49:32.178Z,101690.38
2023-05-10T04:51:59.680Z,101690.60
2023-05-10T04:54:27.631Z,101690.55
2023-05-10T04:56:54.780Z,101691.10
2023-05-10T04:59:21.894Z,101688.09
2023-05-10T05:01:49.061Z,101685.19
2023-05-10T05:04:16.158Z,101684.11
2023-05-10T05:06:43.208Z,101681.84
2023-05-10T05:09:11.266Z,101680.45
2023-05-10T05:11:38.333Z,101680.60
2023-05-10T05:14:05.814Z,101680.77
2023-05-10T05:16:33.546Z,101678.10
2023-05-10T05:19:01.113Z,101680.30
2023-05-10T05:21:28.394Z,101681.02
2023-05-10T05:23:55.419Z,101687.17
2023-05-10T05:26:22.542Z,101684.20
2023-05-10T05:28:51.097Z,101684.41
2023-05-10T05:31:18.991Z,101681.17
2023-05-10T05:33:46.188Z,101679.84
2023-05-10T05:36:13.391Z,101682.30
2023-05-10T05:38:40.929Z,101680.85
2023-05-10T05:41:08.050Z,101686.02
2023-05-10T05:43:37.428Z,101685.36
2023-05-10T05:46:05.498Z,101681.26
2023-05-10T05:48:32.731Z,101682.59
2023-05-10T05:50:59.936Z,101680.95
2023-05-10T05:53:27.486Z,101681.40
2023-05-10T05:55:56.118Z,101683.63
2023-05-10T05:58:23.695Z,101682.40
2023-05-10T06:00:51.492Z,101683.07
2023-05-10T06:03:19.162Z,101682.04
2023-05-10T06:05:46.301Z,101687.02
2023-05-10T06:08:13.332Z,101681.86
2023-05-10T06:10:40.299Z,101679.55
2023-05-10T06:13:07.486Z,101683.59
2023-05-10T06:15:34.560Z,101680.91
2023-05-10T06:18:01.676Z,101678.02
2023-05-10T06:20:28.944Z,101681.60
2023-05-10T06:22:56.144Z,101680.59
2023-05-10T06:25:23.168Z,101679.25
2023-05-10T06:27:52.889Z,101680.17
2023-05-10T06:30:21.399Z,101678.84
2023-05-10T06:32:48.455Z,101679.84
2023-05-10T06:35:15.528Z,101681.61
2023-05-10T06:37:42.776Z,101685.33
2023-05-10T06:40:10.504Z,101683.05
2023-05-10T06:42:37.653Z,101684.04
2023-05-10T06:45:06.941Z,101689.91
2023-05-10T06:47:35.207Z,101684.84
2023-05-10T06:50:04.374Z,101684.00
2023-05-10T06:52:31.402Z,101685.23
2023-05-10T06:54:58.875Z,101682.75
2023-05-10T06:57:31.818Z,101682.88
2023-05-10T07:00:02.686Z,101683.98
2023-05-10T07:02:29.958Z,101687.13
2023-05-10T07:04:59.491Z,101685.39
2023-05-10T07:07:28.455Z,101690.07
2023-05-10T07:09:55.565Z,101691.27
2023-05-10T07:12:22.541Z,101693.66
2023-05-10T07:14:49.587Z,101693.14
2023-05-10T07:17:17.988Z,101691.18
2023-05-10T07:19:45.423Z,101692.36
2023-05-10T07:22:12.704Z,101690.73
2023-05-10T07:24:40.036Z,101690.52
2023-05-10T07:27:07.578Z,101687.19
2023-05-10T07:29:34.619Z,101689.42
2023-05-10T07:32:01.675Z,101683.21
2023-05-10T07:34:29.371Z,101689.33
2023-05-10T07:36:56.411Z,101683.14
2023-05-10T07:39:27.630Z,101682.38
2023-05-10T07:41:58.479Z,101679.52
2023-05-10T07:44:25.684Z,101680.07
2023-05-10T07:46:53.280Z,101678.77
2023-05-10T07:49:21.028Z,101680.19
2023-05-10T07:51:48.120Z,101677.85
2023-05-10T07:54:15.375Z,101678.25
2023-05-10T07:56:48.698Z,101679.61
2023-05-10T07:59:16.773Z,101679.98
2023-05-10T08:01:43.927Z,101679.51
2023-05-10T08:04:11.122Z,101674.91
2023-05-10T08:06:39.005Z,101670.09
2023-05-10T08:09:06.081Z,101668.52
2023-05-10T08:11:35.014Z,101660.66
2023-05-10T08:14:03.424Z,101660.99
2023-05-10T08:16:30.806Z,101660.75
2023-05-10T08:18:58.063Z,101660.36
2023-05-10T08:21:25.891Z,101652.04
2023-05-10T08:23:52.955Z,101655.03
2023-05-10T08:26:20.058Z,101650.91
2023-05-10T08:28:47.290Z,101649.32
2023-05-10T08:31:14.379Z,101652.30
2023-05-10T08:33:42.406Z,101658.91
2023-05-10T08:36:11.534Z,101656.43
2023-05-10T08:38:38.917Z,101653.63
2023-05-10T08:41:06.522Z,101654.30
2023-05-10T08:43:33.663Z,101655.34
2023-05-10T08:46:05.719Z,101649.52
2023-05-10T08:48:32.857Z,101647.58
2023-05-10T08:51:01.152Z,101647.16
2023-05-10T08:53:29.108Z,101641.64
2023-05-10T08:55:56.774Z,101641.98
2023-05-10T08:58:23.958Z,101642.65
2023-05-10T09:00:53.903Z,101643.14
2023-05-10T09:03:21.258Z,101644.19
2023-05-10T09:05:49.704Z,101641.70
2023-05-10T09:08:17.586Z,101642.38
2023-05-10T09:10:45.520Z,101643.99
2023-05-10T09:13:14.362Z,101648.36
2023-05-10T09:15:41.406Z,101644.92
2023-05-10T09:18:09.047Z,101645.78
2023-05-10T09:20:36.190Z,101646.70
2023-05-10T09:23:03.321Z,101652.61
2023-05-10T09:25:30.479Z,101652.94
2023-05-10T09:27:57.557Z,101656.66
2023-05-10T09:30:29.273Z,101670.65
2023-05-10T09:32:56.932Z,101683.69
2023-05-10T09:35:28.735Z,101690.58
2023-05-10T09:37:58.512Z,101687.10
2023-05-10T09:40:26.422Z,101690.84
2023-05-10T09:43:04.063Z,101712.08
2023-05-10T09:45:32.747Z,101715.64
2023-05-10T09:48:00.389Z,101704.42
2023-05-10T09:50:28.248Z,101694.30
2023-05-10T09:53:02.366Z,101685.98
2023-05-10T09:55:43.013Z,101679.61
2023-05-10T09:58:12.816Z,101676.27
2023-05-10T10:00:44.825Z,101676.46
2023-05-10T10:03:20.427Z,101677.73
2023-05-10T10:05:48.280Z,101676.80
2023-05-10T10:08:15.799Z,101681.06
2023-05-10T10:10:43.561Z,101680.73
2023-05-10T10:13:10.761Z,101681.53
2023-05-10T10:15:38.141Z,101683.56
2023-05-10T10:18:05.496Z,101678.91
2023-05-10T10:20:33.096Z,101680.69
2023-05-10T10:23:00.173Z,101682.39
2023-05-10T10:25:27.322Z,101685.65
2023-05-10T10:27:54.395Z,101683.00
2023-05-10T10:30:36.552Z,101686.92
2023-05-10T10:33:35.109Z,101691.02
2023-05-10T10:36:03.355Z,101688.55
2023-05-10T10:38:48.714Z,101686.31
2023-05-10T10:41:36.436Z,101687.59
2023-05-10T10:44:41.592Z,101681.57
2023-05-10T10:47:24.510Z,101683.30
2023-05-10T10:50:18.229Z,101682.56
2023-05-10T10:52:45.461Z,101680.19
2023-05-10T10:55:20.024Z,101683.85
2023-05-10T10:57:48.963Z,101680.59
2023-05-10T11:00:22.267Z,101684.48
2023-05-10T11:02:52.862Z,101678.80
2023-05-10T11:05:28.981Z,101676.58
2023-05-10T11:08:01.116Z,101678.33
2023-05-10T11:10:30.741Z,101681.18
2023-05-10T11:13:02.332Z,101681.97
2023-05-10T11:15:31.799Z,101676.92
2023-05-10T11:17:59.064Z,101672.83
2023-05-10T11:20:34.380Z,101674.42
2023-05-10T11:23:13.682Z,101668.59
2023-05-10T11:25:45.250Z,101665.62
2023-05-10T11:28:13.200Z,101664.64
2023-05-10T11:30:41.188Z,101662.67
2023-05-10T11:33:09.055Z,101668.00
2023-05-10T11:35:42.998Z,101661.97
2023-05-10T11:38:12.463Z,101659.67
2023-05-10T11:40:39.787Z,101656.45
2023-05-10T11:43:07.010Z,101653.06
2023-05-10T11:45:35.592Z,101656.17
2023-05-10T11:48:03.301Z,101655.45
2023-05-10T11:50:30.779Z,101656.71
2023-05-10T11:52:58.257Z,101656.73
2023-05-10T11:55:25.518Z,101655.36
2023-05-10T11:57:55.950Z,101654.38
2023-05-10T12:00:23.147Z,101656.02
2023-05-10T12:02:51.263Z,101659.77
2023-05-10T12:05:18.386Z,101663.19
2023-05-10T12:07:45.863Z,101661.49
2023-05-10T12:10:18.626Z,101660.17
2023-05-10T12:12:47.129Z,101652.13
2023-05-10T12:15:22.077Z,101652.97
2023-05-10T12:17:49.442Z,101646.17
2023-05-10T12:20:21.331Z,101646.16
2023-05-10T12:22:53.011Z,101643.83
2023-05-10T12:25:20.516Z,101644.05
2023-05-10T12:27:57.441Z,101647.74
2023-05-10T12:30:25.495Z,101647.23
2023-05-10T12:32:53.205Z,101640.58
2023-05-10T12:35:25.189Z,101638.66
2023-05-10T12:37:52.418Z,101639.84
2023-05-10T12:40:19.608Z,101642.06
2023-05-10T12:42:46.792Z,101642.95
2023-05-10T12:45:13.949Z,101642.52
2023-05-10T12:47:43.899Z,101641.31
2023-05-10T12:50:12.471Z,101642.29
2023-05-10T12:52:39.721Z,101648.50
2023-05-10T12:55:07.766Z,101644.29
2023-05-10T12:57:35.396Z,101644.29
2023-05-10T13:00:02.515Z,101646.08
2023-05-10T13:02:30.151Z,101639.05
2023-05-10T13:04:57.526Z,101640.05
2023-05-10T13:07:24.679Z,101635.63
2023-05-10T13:09:52.963Z,101634.66
2023-05-10T13:12:20.018Z,101631.37
2023-05-10T13:14:47.089Z,101630.44
2023-05-10T13:17:14.201Z,101624.81
2023-05-10T13:19:41.432Z,101621.92
2023-05-10T13:22:09.269Z,101621.17
2023-05-10T13:24:36.602Z,101616.16
2023-05-10T13:27:03.649Z,101616.39
2023-05-10T13:29:30.694Z,101617.31
2023-05-10T13:31:57.780Z,101611.69
2023-05-10T13:34:25.397Z,101610.82
2023-05-10T13:36:54.070Z,101609.21
2023-05-10T13:39:21.815Z,101606.15
2023-05-10T13:41:49.021Z,101604.38
2023-05-10T13:44:16.591Z,101605.55
2023-05-10T13:46:43.727Z,101602.90
2023-05-10T13:49:10.848Z,101603.55
2023-05-10T13:51:37.929Z,101600.08
2023-05-10T13:54:05.206Z,101599.76
2023-05-10T13:56:32.356Z,101601.51
2023-05-10T13:58:59.922Z,101598.96
2023-05-10T14:01:27.145Z,101600.74
2023-05-10T14:03:55.250Z,101600.79
2023-05-10T14:06:22.999Z,101599.02
2023-05-10T14:08:50.824Z,101602.83
2023-05-10T14:11:18.716Z,101607.63
2023-05-10T14:13:45.790Z,101606.98
2023-05-10T14:16:12.978Z,101609.16
2023-05-10T14:18:40.093Z,101608.81
2023-05-10T14:21:07.271Z,101610.02
2023-05-10T14:23:34.321Z,101609.65
2023-05-10T14:26:01.633Z,101610.06
2023-05-10T14:28:28.979Z,101607.52
2023-05-10T14:30:56.033Z,101612.35
2023-05-10T14:33:23.119Z,101603.73
2023-05-10T14:35:50.366Z,101603.09
2023-05-10T14:38:17.412Z,101603.77
2023-05-10T14:40:44.419Z,101602.67
2023-05-10T14:43:11.471Z,101601.10
2023-05-10T14:45:39.869Z,101597.94
2023-05-10T14:48:06.997Z,101592.89
2023-05-10T14:50:37.148Z,101591.00
2023-05-10T14:53:05.314Z,101587.95
2023-05-10T14:55:32.398Z,101586.42
2023-05-10T14:57:59.856Z,101586.34
2023-05-10T15:00:27.353Z,101585.05
2023-05-10T15:02:55.126Z,101588.16
2023-05-10T15:05:23.323Z,101590.25
2023-05-10T15:07:50.944Z,101590.30
2023-05-10T15:10:19.433Z,101593.29
2023-05-10T15:12:49.629Z,101590.27
2023-05-10T15:15:17.038Z,101593.86
2023-05-10T15:17:44.620Z,101596.23
2023-05-10T15:20:11.982Z,101600.48
2023-05-10T15:22:39.428Z,101604.05
2023-05-10T15:25:07.068Z,101604.55
2023-05-10T15:27:34.431Z,101599.61
2023-05-10T15:30:01.786Z,101599.74
2023-05-10T15:32:30.400Z,101605.36
2023-05-10T15:34:57.492Z,101601.65
2023-05-10T15:37:25.589Z,101604.54
2023-05-10T15:39:52.727Z,101603.03
2023-05-10T15:42:19.843Z,101608.16
2023-05-10T15:44:51.250Z,101612.50
2023-05-10T15:47:18.663Z,101613.70
2023-05-10T15:49:46.116Z,101617.83
2023-05-10T15:52:13.366Z,101616.70
2023-05-10T15:54:41.869Z,101621.00
2023-05-10T15:57:09.539Z,101627.84
2023-05-10T15:59:37.627Z,101630.19
2023-05-10T16:02:05.184Z,101638.81
2023-05-10T16:04:32.715Z,101642.25
2023-05-10T16:07:01.254Z,101643.20
2023-05-10T16:09:29.044Z,101645.98
2023-05-10T16:11:56.982Z,101645.39
2023-05-10T16:14:24.960Z,101643.91
2023-05-10T16:16:52.945Z,101651.83
2023-05-10T16:19:20.224Z,101651.67
2023-05-10T16:21:47.901Z,101654.38
2023-05-10T16:24:15.777Z,101663.78
2023-05-10T16:26:43.542Z,101666.17
2023-05-10T16:29:11.227Z,101671.05
2023-05-10T16:31:39.177Z,101671.88
2023-05-10T16:34:09.748Z,101671.05
2023-05-10T16:36:37.671Z,101668.64
2023-05-10T16:39:06.129Z,101671.52
2023-05-10T16:41:34.752Z,101675.73
2023-05-10T16:44:05.407Z,101680.21
2023-05-10T16:46:33.974Z,101677.88
2023-05-10T16:49:01.199Z,101682.38
2023-05-10T16:51:29.376Z,101685.41
2023-05-10T16:53:56.533Z,101692.89
2023-05-10T16:56:24.631Z,101695.85
2023-05-10T16:58:51.925Z,101705.73
2023-05-10T17:01:21.113Z,101723.27
2023-05-10T17:03:49.541Z,101714.54
2023-05-10T17:06:17.145Z,101719.03
2023-05-10T17:08:44.796Z,101722.55
2023-05-10T17:11:12.611Z,101719.50
2023-05-10T17:13:41.119Z,101721.12
2023-05-10T17:16:08.833Z,101720.11
2023-05-10T17:18:36.048Z,101724.38
2023-05-10T17:21:03.497Z,101724.41
2023-05-10T17:23:30.692Z,101715.37
2023-05-10T17:26:00.163Z,101717.25
2023-05-10T17:28:29.936Z,101711.62
2023-05-10T17:30:58.096Z,101712.88
2023-05-10T17:33:25.212Z,101717.84
2023-05-10T17:35:52.474Z,101713.69
2023-05-10T17:38:19.702Z,101711.81
2023-05-10T17:40:48.351Z,101714.64
2023-05-10T17:43:16.169Z,101709.78
2023-05-10T17:45:44.480Z,101709.54
2023-05-10T17:48:12.863Z,101710.00
2023-05-10T17:50:42.467Z,101710.65
2023-05-10T17:53:09.932Z,101712.70
2023-05-10T17:55:37.063Z,101707.65
2023-05-10T17:58:04.171Z,101705.83
2023-05-10T18:00:31.279Z,101710.16
2023-05-10T18:02:58.461Z,101708.07
2023-05-10T18:05:25.912Z,101706.88
2023-05-10T18:07:53.286Z,101717.05
2023-05-10T18:10:20.853Z,101718.05
2023-05-10T18:12:53.224Z,101724.41
2023-05-10T18:15:21.770Z,101723.27
2023-05-10T18:17:49.875Z,101731.31
2023-05-10T18:20:17.118Z,101733.47
2023-05-10T18:22:44.335Z,101736.27
2023-05-10T18:25:11.715Z,101739.48
2023-05-10T18:27:39.072Z,101735.59
2023-05-10T18:30:06.897Z,101738.86
2023-05-10T18:32:34.254Z,101741.64
2023-05-10T18:35:01.791Z,101741.16
2023-05-10T18:37:29.282Z,101740.31
2023-05-10T18:41:39.327Z,101744.33
2023-05-10T18:44:10.162Z,101751.50
2023-05-10T18:46:38.677Z,101751.81
2023-05-10T18:49:06.911Z,101752.98
2023-05-10T18:51:34.113Z,101756.86
2023-05-10T18:54:01.979Z,101759.56
2023-05-10T18:56:34.832Z,101756.73
2023-05-10T18:59:03.562Z,101757.96
2023-05-10T19:01:31.121Z,101755.91
2023-05-10T19:03:59.224Z,101757.90
2023-05-10T19:06:26.599Z,101757.79
2023-05-10T19:08:54.486Z,101761.95
2023-05-10T19:11:23.819Z,101760.23
2023-05-10T19:13:51.065Z,101760.63
2023-05-10T19:16:19.293Z,101761.49
2023-05-10T19:18:47.053Z,101764.20
2023-05-10T19:21:14.640Z,101761.50
2023-05-10T19:23:43.315Z,101766.00
2023-05-10T19:26:13.825Z,101762.68
2023-05-10T19:28:41.701Z,101761.17
2023-05-10T19:31:09.664Z,101766.78
2023-05-10T19:33:38.757Z,101764.29
2023-05-10T19:36:10.599Z,101761.73
2023-05-10T19:38:38.059Z,101761.48
2023-05-10T19:41:07.612Z,101762.19
2023-05-10T19:43:37.184Z,101763.16
2023-05-10T19:46:04.613Z,101761.38
2023-05-10T19:48:32.247Z,101761.02
2023-05-10T19:51:06.986Z,101762.35
2023-05-10T19:53:36.762Z,101761.30
2023-05-10T19:56:05.385Z,101758.72
2023-05-10T19:58:33.525Z,101757.19
2023-05-10T20:01:00.668Z,101757.20
2023-05-10T20:03:28.707Z,101756.05
2023-05-10T20:05:55.929Z,101755.17
2023-05-10T20:08:24.732Z,101749.14
2023-05-10T20:10:59.877Z,101750.90
2023-05-10T20:13:28.383Z,101752.42
2023-05-10T20:15:56.850Z,101751.96
2023-05-10T20:18:24.170Z,101752.25
2023-05-10T20:20:55.806Z,101753.85
2023-05-10T20:23:23.619Z,101754.75
2023-05-10T20:25:51.376Z,101753.06
2023-05-10T20:28:23.213Z,101753.90
2023-05-10T20:30:54.339Z,101754.27
2023-05-10T20:33:25.377Z,101756.93
2023-05-10T20:35:52.656Z,101753.73
2023-05-10T20:38:19.776Z,101753.23
2023-05-10T20:40:47.523Z,101752.58
2023-05-10T20:43:14.593Z,101755.56
2023-05-10T20:45:41.908Z,101760.75
2023-05-10T20:48:09.881Z,101755.85
2023-05-10T20:50:36.958Z,101760.24
2023-05-10T20:53:04.200Z,101758.40
2023-05-10T20:55:31.373Z,101763.83
2023-05-10T20:57:58.467Z,101760.98
2023-05-10T21:00:26.253Z,101763.61
2023-05-10T21:02:53.395Z,101768.05
2023-05-10T21:05:20.658Z,101770.58
2023-05-10T21:07:47.889Z,101768.13
2023-05-10T21:10:15.929Z,101771.98
2023-05-10T21:12:56.962Z,101772.34
2023-05-10T21:15:25.672Z,101769.39
2023-05-10T21:17:54.219Z,101771.30
2023-05-10T21:20:21.427Z,101775.73
2023-05-10T21:22:49.034Z,101771.90
2023-05-10T21:25:16.272Z,101774.23
2023-05-10T21:27:43.337Z,101777.58
2023-05-10T21:30:10.674Z,101775.52
2023-05-10T21:32:37.887Z,101773.98
2023-05-10T21:35:05.707Z,101773.99
2023-05-10T21:37:32.796Z,101775.64
2023-05-10T21:40:00.920Z,101772.47
2023-05-10T21:42:28.073Z,101774.25
2023-05-10T21:44:55.226Z,101774.89
2023-05-10T21:47:22.722Z,101774.98
2023-05-10T21:49:50.731Z,101771.73
2023-05-10T21:52:17.871Z,101774.59
2023-05-10T21:54:45.050Z,101775.49
2023-05-10T21:57:12.394Z,101775.38
2023-05-10T21:59:57.867Z,101771.73
2023-05-10T22:02:25.201Z,101770.81
2023-05-10T22:04:52.434Z,101769.66
2023-05-10T22:07:19.488Z,101763.49
2023-05-10T22:09:46.637Z,101770.81
2023-05-10T22:12:13.852Z,101772.28
2023-05-10T22:14:41.252Z,101777.02
2023-05-10T22:17:08.513Z,101778.15
2023-05-10T22:19:35.867Z,101778.33
2023-05-10T22:22:03.008Z,101780.44
2023-05-10T22:24:31.177Z,101779.67
2023-05-10T22:26:58.344Z,101782.43
2023-05-10T22:29:25.453Z,101780.66
2023-05-10T22:31:52.532Z,101781.23
2023-05-10T22:34:19.697Z,101779.40
2023-05-10T22:36:46.882Z,101778.19
2023-05-10T22:39:13.963Z,101778.46
2023-05-10T22:41:41.036Z,101773.19
2023-05-10T22:44:08.981Z,101770.00
2023-05-10T22:46:37.724Z,101770.71
2023-05-10T22:49:06.099Z,101771.19
2023-05-10T22:51:33.432Z,101766.90
2023-05-10T22:54:00.573Z,101766.01
2023-05-10T22:56:27.625Z,101762.88
2023-05-10T22:58:55.183Z,101759.59
2023-05-10T23:01:22.441Z,101760.67
2023-05-10T23:03:49.700Z,101760.02
2023-05-10T23:06:16.918Z,101759.73
2023-05-10T23:08:44.495Z,101761.36
2023-05-10T23:11:11.535Z,101759.61
2023-05-10T23:13:38.608Z,101761.52
2023-05-10T23:16:06.770Z,101762.16
2023-05-10T23:18:34.218Z,101761.11
2023-05-10T23:21:01.277Z,101761.38
2023-05-10T23:23:28.409Z,101761.14
2023-05-10T23:25:55.540Z,101762.14
2023-05-10T23:28:24.058Z,101759.84
2023-05-10T23:30:58.212Z,101760.85
2023-05-10T23:33:25.387Z,101760.45
2023-05-10T23:35:53.447Z,101763.58
2023-05-10T23:38:21.139Z,101764.16
2023-05-10T23:40:52.186Z,101766.20
2023-05-10T23:43:20.070Z,101770.47
2023-05-10T23:45:56.837Z,101767.65
2023-05-10T23:48:24.418Z,101768.99
2023-05-10T23:50:51.445Z,101766.41
2023-05-10T23:53:18.522Z,101761.55
2023-05-10T23:55:46.233Z,101763.92
2023-05-10T23:58:13.457Z,101764.55
